Time;durP1;ratioP1;P1;durP2;ratioP2;P2;SDS_P1;SDS_P2;PMS_P1;PMS_P2;Temp;Humidity;BMP_temperature;BMP_pressure;BME280_temperature;BME280_humidity;BME280_pressure;Samples;Min_cycle;Max_cycle;Signal;HPM_P1;HPM_P2
2021/06/25 00:00:58;;;;;;;8.25;4.10;;;14.70;62.60;;;;;;6092280;23;20025;-68
2021/06/25 00:03:24;;;;;;;8.30;3.63;;;14.70;62.60;;;;;;6093231;23;20017;-67
2021/06/25 00:05:51;;;;;;;6.97;3.75;;;14.70;62.60;;;;;;6093228;23;20050;-68
2021/06/25 00:08:17;;;;;;;7.82;5.10;;;14.70;62.60;;;;;;6092467;23;20397;-67
2021/06/25 00:10:44;;;;;;;5.55;3.40;;;14.70;62.60;;;;;;6093170;23;20430;-67
2021/06/25 00:13:10;;;;;;;5.47;3.40;;;14.70;62.70;;;;;;6092278;23;20046;-67
2021/06/25 00:15:37;;;;;;;10.07;4.40;;;14.70;62.70;;;;;;6093221;23;20367;-67
2021/06/25 00:18:05;;;;;;;10.93;4.03;;;14.60;62.60;;;;;;6091890;23;20502;-67
2021/06/25 00:20:31;;;;;;;10.00;3.78;;;14.70;62.70;;;;;;6093653;23;20006;-67
2021/06/25 00:22:58;;;;;;;4.97;3.75;;;14.60;62.70;;;;;;6092603;23;20007;-68
2021/06/25 00:25:26;;;;;;;9.20;4.50;;;14.60;62.80;;;;;;6092739;23;20017;-68
2021/06/25 00:27:52;;;;;;;7.03;4.35;;;14.60;62.80;;;;;;6093648;23;20010;-68
2021/06/25 00:30:19;;;;;;;9.10;4.93;;;14.60;62.90;;;;;;6092456;23;20006;-66
2021/06/25 00:32:46;;;;;;;9.48;6.47;;;14.60;63.00;;;;;;6093438;23;20009;-68
2021/06/25 00:35:14;;;;;;;14.55;6.47;;;14.60;63.10;;;;;;6091816;23;20057;-67
2021/06/25 00:37:41;;;;;;;12.18;6.05;;;14.60;63.20;;;;;;6093175;23;19999;-67
2021/06/25 00:40:08;;;;;;;12.32;6.60;;;14.50;63.30;;;;;;6091940;23;20002;-68
2021/06/25 00:42:35;;;;;;;19.00;7.20;;;14.50;63.40;;;;;;6093202;23;20017;-68
2021/06/25 00:45:16;;;;;;;9.57;6.47;;;14.50;63.50;;;;;;6092969;23;19998;-67
2021/06/25 00:47:47;;;;;;;12.70;7.47;;;14.50;63.60;;;;;;6091867;23;20015;-68
2021/06/25 00:50:17;;;;;;;12.10;5.75;;;14.50;63.70;;;;;;6093092;23;20577;-68
2021/06/25 00:52:44;;;;;;;13.60;7.00;;;14.50;63.70;;;;;;6091885;23;20026;-67
2021/06/25 00:55:11;;;;;;;13.13;6.78;;;14.50;63.70;;;;;;6092971;23;20033;-66
2021/06/25 00:57:38;;;;;;;11.20;6.45;;;14.50;63.80;;;;;;6093148;23;20450;-68
2021/06/25 01:00:07;;;;;;;13.93;6.95;;;14.50;63.80;;;;;;6093150;23;20006;-66
2021/06/25 01:02:34;;;;;;;14.05;7.95;;;14.50;63.80;;;;;;6093360;23;20367;-67
2021/06/25 01:05:01;;;;;;;11.20;7.97;;;14.50;63.90;;;;;;6091733;23;20066;-68
2021/06/25 01:07:31;;;;;;;14.20;8.00;;;14.50;64.00;;;;;;6092864;23;20457;-68
2021/06/25 01:09:59;;;;;;;11.65;7.68;;;14.50;64.00;;;;;;6091506;23;20431;-66
2021/06/25 01:12:27;;;;;;;13.60;7.00;;;14.50;64.20;;;;;;6093010;23;20002;-67
2021/06/25 01:14:53;;;;;;;10.23;6.35;;;14.40;64.10;;;;;;6092365;23;20002;-67
2021/06/25 01:17:40;;;;;;;12.65;5.35;;;14.40;64.20;;;;;;6092587;23;20323;-67
2021/06/25 01:20:28;;;;;;;10.05;5.93;;;14.40;64.30;;;;;;6093183;23;20013;-66
2021/06/25 01:22:56;;;;;;;9.50;4.63;;;14.50;64.40;;;;;;6091562;23;20003;-67
2021/06/25 01:25:26;;;;;;;7.03;4.75;;;14.40;64.30;;;;;;6093294;23;19998;-68
2021/06/25 01:27:56;;;;;;;9.40;5.03;;;14.40;64.40;;;;;;6092495;23;20347;-67
2021/06/25 01:30:26;;;;;;;7.45;4.85;;;14.40;64.40;;;;;;6092794;23;20074;-66
2021/06/25 01:32:53;;;;;;;5.82;4.40;;;14.40;64.40;;;;;;6092907;23;20074;-66
2021/06/25 01:35:20;;;;;;;11.63;8.25;;;14.40;64.50;;;;;;6091714;23;20339;-68
2021/06/25 01:37:48;;;;;;;6.82;4.75;;;14.30;64.40;;;;;;6092734;23;20022;-67
2021/06/25 01:40:17;;;;;;;10.32;5.13;;;14.40;64.50;;;;;;6091712;23;20014;-67
2021/06/25 01:42:46;;;;;;;10.52;4.45;;;14.40;64.50;;;;;;6092945;23;19999;-67
2021/06/25 01:45:19;;;;;;;8.60;4.68;;;14.30;64.50;;;;;;6092279;23;19999;-68
2021/06/25 01:47:47;;;;;;;7.82;4.75;;;14.40;64.50;;;;;;6093181;23;20092;-67
2021/06/25 01:50:16;;;;;;;8.50;5.28;;;14.30;64.40;;;;;;6094641;23;20029;-66
2021/06/25 01:52:50;;;;;;;9.82;5.32;;;14.30;64.40;;;;;;6093849;23;19998;-67
2021/06/25 01:55:18;;;;;;;11.02;5.63;;;14.30;64.40;;;;;;6094446;23;20008;-66
2021/06/25 01:57:45;;;;;;;7.97;5.00;;;14.30;64.40;;;;;;6093330;23;20045;-66
2021/06/25 02:00:12;;;;;;;6.57;4.82;;;14.30;64.40;;;;;;6094604;23;20053;-66
2021/06/25 02:02:40;;;;;;;7.82;3.92;;;14.30;64.60;;;;;;6094133;23;20410;-68
2021/06/25 02:05:08;;;;;;;5.57;3.35;;;14.30;64.70;;;;;;6093611;23;19998;-67
2021/06/25 02:07:35;;;;;;;5.43;3.08;;;14.30;64.70;;;;;;6094302;23;20089;-67
2021/06/25 02:10:41;;;;;;;5.55;3.15;;;14.30;64.80;;;;;;6091224;23;20014;-67
2021/06/25 02:13:47;;;;;;;4.47;2.50;;;14.30;64.90;;;;;;6094022;23;19999;-67
2021/06/25 02:16:53;;;;;;;5.72;2.58;;;14.30;64.90;;;;;;6094640;23;20029;-67
2021/06/25 02:19:59;;;;;;;4.88;2.90;;;14.30;65.00;;;;;;6092955;23;20002;-67
2021/06/25 02:22:26;;;;;;;6.90;2.05;;;14.30;65.20;;;;;;6093470;23;19998;-67
2021/06/25 02:24:52;;;;;;;5.80;2.25;;;14.30;65.30;;;;;;6094193;23;20002;-67
2021/06/25 02:27:19;;;;;;;4.70;1.90;;;14.30;65.40;;;;;;6092988;23;19999;-67
2021/06/25 02:29:45;;;;;;;3.47;2.00;;;14.30;65.60;;;;;;6094057;23;20003;-67
2021/06/25 02:32:12;;;;;;;5.18;2.65;;;14.30;65.60;;;;;;6092834;23;20327;-66
2021/06/25 02:34:38;;;;;;;4.20;1.80;;;14.30;65.60;;;;;;6094064;23;20493;-67
2021/06/25 02:37:05;;;;;;;6.85;2.05;;;14.20;65.60;;;;;;6093196;23;20010;-66
2021/06/25 02:39:32;;;;;;;7.30;1.85;;;14.20;65.70;;;;;;6093658;23;20427;-67
2021/06/25 02:41:58;;;;;;;3.97;1.83;;;14.20;65.70;;;;;;6094124;23;20007;-67
2021/06/25 02:44:24;;;;;;;4.93;1.85;;;14.30;65.90;;;;;;6092987;23;19998;-67
2021/06/25 02:46:51;;;;;;;2.92;1.75;;;14.20;65.80;;;;;;6093840;23;20300;-67
2021/06/25 02:49:18;;;;;;;2.33;1.52;;;14.20;65.70;;;;;;6092648;23;20006;-68
2021/06/25 02:51:45;;;;;;;2.38;1.20;;;14.20;65.70;;;;;;6094303;23;20331;-67
2021/06/25 02:54:12;;;;;;;3.53;2.05;;;14.20;65.60;;;;;;6093136;23;20022;-68
2021/06/25 02:56:38;;;;;;;3.85;1.70;;;14.20;65.60;;;;;;6093570;23;20328;-66
2021/06/25 02:59:05;;;;;;;4.53;1.67;;;14.20;65.70;;;;;;6093283;23;20003;-67
2021/06/25 03:01:32;;;;;;;3.17;1.90;;;14.20;65.70;;;;;;6092950;23;20574;-66
2021/06/25 03:03:58;;;;;;;5.00;1.75;;;14.20;65.70;;;;;;6093796;23;20050;-68
2021/06/25 03:06:25;;;;;;;3.45;1.25;;;14.20;65.70;;;;;;6092507;23;20037;-66
2021/06/25 03:08:52;;;;;;;3.63;1.42;;;14.20;65.70;;;;;;6093423;23;20065;-66
2021/06/25 03:11:18;;;;;;;3.10;0.98;;;14.20;65.70;;;;;;6092817;23;20057;-67
2021/06/25 03:13:45;;;;;;;7.68;1.33;;;14.20;65.70;;;;;;6093549;23;20446;-68
2021/06/25 03:16:11;;;;;;;2.72;1.00;;;14.20;65.70;;;;;;6092986;23;20078;-67
2021/06/25 03:18:38;;;;;;;4.05;1.42;;;14.20;65.70;;;;;;6092924;23;20014;-67
2021/06/25 03:21:05;;;;;;;3.03;1.38;;;14.20;65.70;;;;;;6093657;23;20049;-67
2021/06/25 03:23:31;;;;;;;3.45;1.30;;;14.20;65.60;;;;;;6092394;23;20002;-66
2021/06/25 03:25:57;;;;;;;1.83;1.10;;;14.20;65.60;;;;;;6091648;23;20334;-66
2021/06/25 03:28:24;;;;;;;3.70;1.50;;;14.20;65.50;;;;;;6092468;23;20050;-67
2021/06/25 03:30:51;;;;;;;4.10;1.40;;;14.20;65.60;;;;;;6093438;23;20049;-68
2021/06/25 03:33:17;;;;;;;3.20;1.50;;;14.20;65.70;;;;;;6092587;23;20006;-67
2021/06/25 03:35:44;;;;;;;1.85;1.25;;;14.20;65.70;;;;;;6093098;23;20374;-67
2021/06/25 03:38:10;;;;;;;3.38;1.75;;;14.20;65.70;;;;;;6093499;23;20323;-68
2021/06/25 03:40:37;;;;;;;2.17;1.33;;;14.20;65.70;;;;;;6092874;23;20427;-66
2021/06/25 03:43:04;;;;;;;1.63;1.30;;;14.20;65.80;;;;;;6094172;23;20010;-68
2021/06/25 03:45:31;;;;;;;1.80;1.00;;;14.20;65.90;;;;;;6092574;23;20009;-66
2021/06/25 03:47:58;;;;;;;3.65;1.27;;;14.20;65.90;;;;;;6093409;23;20445;-66
2021/06/25 03:50:25;;;;;;;5.28;3.03;;;14.20;65.90;;;;;;6092182;23;20030;-67
2021/06/25 03:52:51;;;;;;;3.78;2.38;;;14.20;65.90;;;;;;6093341;23;20410;-68
2021/06/25 03:55:18;;;;;;;2.35;2.15;;;14.20;65.90;;;;;;6092818;23;20006;-68
2021/06/25 03:57:45;;;;;;;3.55;1.95;;;14.10;65.90;;;;;;6092707;23;20081;-67
2021/06/25 04:00:15;;;;;;;3.33;2.00;;;14.10;65.90;;;;;;6093306;23;20327;-66
2021/06/25 04:02:41;;;;;;;3.17;1.40;;;14.20;66.00;;;;;;6092622;23;20002;-66
2021/06/25 04:05:09;;;;;;;2.85;1.42;;;14.10;65.90;;;;;;6093764;23;20007;-65
2021/06/25 04:07:37;;;;;;;2.70;1.80;;;14.10;65.90;;;;;;6091981;23;20423;-67
2021/06/25 04:10:08;;;;;;;4.70;1.98;;;14.10;65.90;;;;;;6092641;23;20028;-66
2021/06/25 04:12:35;;;;;;;1.58;1.05;;;14.10;65.90;;;;;;6093025;23;20457;-68
2021/06/25 04:15:01;;;;;;;2.95;1.50;;;14.10;66.00;;;;;;6092837;23;20045;-68
2021/06/25 04:17:28;;;;;;;3.90;1.00;;;14.10;66.00;;;;;;6093068;23;20003;-67
2021/06/25 04:19:54;;;;;;;1.88;1.20;;;14.20;66.10;;;;;;6092093;23;20059;-66
2021/06/25 04:22:21;;;;;;;2.42;1.10;;;14.20;66.10;;;;;;6093421;23;20033;-67
2021/06/25 04:24:49;;;;;;;1.77;1.60;;;14.20;66.10;;;;;;6092103;23;20466;-67
2021/06/25 04:27:16;;;;;;;5.10;1.85;;;14.20;66.10;;;;;;6092951;23;20434;-66
2021/06/25 04:29:44;;;;;;;2.38;1.63;;;14.20;66.10;;;;;;6092407;23;20010;-65
2021/06/25 04:32:12;;;;;;;3.15;2.08;;;14.10;66.20;;;;;;6092528;23;19990;-66
2021/06/25 04:34:39;;;;;;;2.83;2.05;;;14.10;66.50;;;;;;6093022;23;20009;-66
2021/06/25 04:37:06;;;;;;;2.70;1.60;;;14.20;66.40;;;;;;6092040;23;20007;-70
2021/06/25 04:39:32;;;;;;;2.60;2.40;;;14.20;66.40;;;;;;6092731;23;20026;-67
2021/06/25 04:41:59;;;;;;;7.40;5.63;;;14.10;66.30;;;;;;6091677;23;20009;-66
2021/06/25 04:44:25;;;;;;;7.97;5.13;;;14.10;66.50;;;;;;6091466;23;20026;-67
2021/06/25 04:46:52;;;;;;;7.35;4.28;;;14.10;67.10;;;;;;6089439;23;19998;-66
2021/06/25 04:49:19;;;;;;;5.93;3.35;;;14.10;67.00;;;;;;6091186;23;20010;-68
2021/06/25 04:51:45;;;;;;;3.95;2.78;;;14.10;66.90;;;;;;6090489;23;19999;-67
2021/06/25 04:54:12;;;;;;;3.55;2.42;;;14.10;66.90;;;;;;6089322;23;20077;-67
2021/06/25 04:56:38;;;;;;;5.22;3.33;;;14.10;66.90;;;;;;6090336;23;20505;-67
2021/06/25 04:59:05;;;;;;;4.55;2.33;;;14.10;66.80;;;;;;6089224;23;20014;-66
2021/06/25 05:01:32;;;;;;;6.03;2.13;;;14.10;66.90;;;;;;6089836;23;19994;-67
2021/06/25 05:03:59;;;;;;;4.40;2.17;;;14.10;66.80;;;;;;6090552;23;19998;-66
2021/06/25 05:06:25;;;;;;;1.70;1.55;;;14.00;66.80;;;;;;6090897;23;20006;-67
2021/06/25 05:08:52;;;;;;;4.75;1.73;;;14.00;66.90;;;;;;6090269;23;20014;-67
2021/06/25 05:11:19;;;;;;;1.75;1.52;;;14.00;66.90;;;;;;6088922;23;20471;-66
2021/06/25 05:14:25;;;;;;;1.85;1.02;;;14.00;66.90;;;;;;6088690;23;20010;-66
2021/06/25 05:17:31;;;;;;;1.77;1.40;;;14.00;66.90;;;;;;6088290;23;20010;-67
2021/06/25 05:20:37;;;;;;;2.50;1.38;;;14.00;66.90;;;;;;6088715;23;20030;-68
2021/06/25 05:23:43;;;;;;;3.70;1.40;;;14.00;66.90;;;;;;6092067;23;20058;-67
2021/06/25 05:26:49;;;;;;;3.97;2.67;;;14.00;67.00;;;;;;6092715;23;20009;-67
2021/06/25 05:29:55;;;;;;;2.55;1.20;;;14.00;67.00;;;;;;6091561;23;20089;-65
2021/06/25 05:33:03;;;;;;;1.55;1.23;;;14.00;67.10;;;;;;6092142;23;20013;-68
2021/06/25 05:36:09;;;;;;;3.13;1.25;;;14.00;67.10;;;;;;6094393;23;20026;-73
2021/06/25 05:39:15;;;;;;;4.68;1.98;;;14.00;67.10;;;;;;6092816;23;20449;-68
2021/06/25 05:42:22;;;;;;;2.63;1.40;;;14.00;67.10;;;;;;6092515;23;20013;-68
2021/06/25 05:45:28;;;;;;;4.97;1.95;;;14.00;67.10;;;;;;6093984;23;20027;-68
2021/06/25 05:48:35;;;;;;;2.60;1.65;;;14.00;67.10;;;;;;6093171;23;20073;-66
2021/06/25 05:51:42;;;;;;;2.20;1.25;;;14.00;67.20;;;;;;6092419;23;19998;-68
2021/06/25 05:54:49;;;;;;;3.08;1.02;;;14.00;67.30;;;;;;6094059;23;20005;-67
2021/06/25 05:57:55;;;;;;;4.72;1.02;;;14.00;67.30;;;;;;6094408;23;20005;-67
2021/06/25 06:01:01;;;;;;;3.83;1.52;;;14.00;67.40;;;;;;6093461;23;20006;-67
2021/06/25 06:04:08;;;;;;;4.20;1.38;;;14.00;67.40;;;;;;6093085;23;20037;-67
2021/06/25 06:06:54;;;;;;;;;;;14.00;67.40;;;;;;6093895;23;20457;-66
2021/06/25 06:10:00;;;;;;;2.22;1.23;;;13.90;67.40;;;;;;6092305;23;19944;-66
2021/06/25 06:13:06;;;;;;;5.80;1.60;;;14.00;67.50;;;;;;6092070;23;20006;-66
2021/06/25 06:16:28;;;;;;;4.68;1.75;;;13.90;67.60;;;;;;6090199;23;20026;-66
2021/06/25 06:19:40;;;;;;;5.22;1.50;;;13.90;67.70;;;;;;6094116;23;20006;-66
2021/06/25 06:33:09;;;;;;;3.20;1.83;;;14.00;68.40;;;;;;6093360;23;20028;-66
2021/06/25 06:36:27;;;;;;;5.38;1.50;;;13.90;68.50;;;;;;6093093;23;20030;-66
2021/06/25 06:39:33;;;;;;;4.10;1.98;;;13.90;68.60;;;;;;6092617;23;20022;-66
2021/06/25 06:42:00;;;;;;;3.10;1.77;;;14.00;68.70;;;;;;6092120;23;20521;-66
2021/06/25 06:44:27;;;;;;;5.60;1.83;;;14.00;68.90;;;;;;6092853;23;20021;-66
2021/06/25 06:46:54;;;;;;;2.28;1.38;;;14.00;69.70;;;;;;6091985;23;20439;-66
2021/06/25 06:49:20;;;;;;;2.42;1.52;;;14.00;69.30;;;;;;6093231;23;20335;-66
2021/06/25 06:51:47;;;;;;;2.58;1.20;;;14.00;69.40;;;;;;6091404;23;20013;-66
2021/06/25 06:54:13;;;;;;;3.25;1.52;;;14.10;69.70;;;;;;6093529;23;20006;-68
2021/06/25 06:56:40;;;;;;;2.35;1.70;;;14.10;69.80;;;;;;6091558;23;20007;-66
2021/06/25 06:59:08;;;;;;;3.92;1.77;;;14.10;70.00;;;;;;6092576;23;20047;-66
2021/06/25 07:01:36;;;;;;;2.33;1.77;;;14.10;70.00;;;;;;6092576;23;20335;-67
2021/06/25 07:04:05;;;;;;;5.40;1.48;;;14.20;70.20;;;;;;6091682;23;20006;-68
2021/06/25 07:06:32;;;;;;;4.18;1.77;;;14.20;70.20;;;;;;6092676;23;20006;-66
2021/06/25 07:09:00;;;;;;;4.55;1.50;;;14.20;70.30;;;;;;6091379;23;20060;-68
2021/06/25 07:11:26;;;;;;;2.42;1.23;;;14.30;70.30;;;;;;6092717;23;20037;-70
2021/06/25 07:13:53;;;;;;;2.47;1.30;;;14.30;70.30;;;;;;6092193;23;20054;-67
2021/06/25 07:16:20;;;;;;;2.17;1.65;;;14.30;70.30;;;;;;6092468;23;20013;-66
2021/06/25 07:18:47;;;;;;;2.88;1.55;;;14.30;70.30;;;;;;6092000;23;20007;-66
2021/06/25 07:21:14;;;;;;;4.82;1.50;;;14.30;70.30;;;;;;6088245;23;20006;-68
2021/06/25 07:23:40;;;;;;;4.07;1.88;;;14.30;70.20;;;;;;6090029;23;20002;-68
2021/06/25 07:26:07;;;;;;;2.83;1.90;;;14.30;70.20;;;;;;6089892;23;19998;-67
2021/06/25 07:28:35;;;;;;;4.05;1.88;;;14.40;70.30;;;;;;6086805;23;20014;-69
2021/06/25 07:31:02;;;;;;;4.63;1.70;;;14.30;70.20;;;;;;6089744;23;20065;-69
2021/06/25 07:33:29;;;;;;;2.65;1.60;;;14.30;70.20;;;;;;6090629;23;20596;-67
2021/06/25 07:35:56;;;;;;;2.30;1.30;;;14.30;70.30;;;;;;6090078;23;20002;-67
2021/06/25 07:38:22;;;;;;;5.00;1.80;;;14.30;70.90;;;;;;6089495;23;20363;-68
2021/06/25 07:40:49;;;;;;;6.78;1.75;;;14.40;70.40;;;;;;6090902;23;19999;-68
2021/06/25 07:43:16;;;;;;;2.70;1.40;;;14.40;70.40;;;;;;6089310;23;20002;-68
2021/06/25 07:45:43;;;;;;;5.32;2.17;;;14.30;70.50;;;;;;6091383;23;20006;-68
2021/06/25 07:48:09;;;;;;;5.20;1.90;;;14.40;70.40;;;;;;6091629;23;20014;-70
2021/06/25 07:50:36;;;;;;;3.50;1.95;;;14.40;70.50;;;;;;6092291;23;20078;-68
2021/06/25 07:53:06;;;;;;;4.15;2.38;;;14.40;70.60;;;;;;6090659;23;20010;-66
2021/06/25 07:55:33;;;;;;;8.25;1.80;;;14.40;70.60;;;;;;6090176;23;20013;-68
2021/06/25 07:57:59;;;;;;;4.25;1.95;;;14.40;70.60;;;;;;6092733;23;20007;-68
2021/06/25 08:00:26;;;;;;;10.52;2.22;;;14.40;70.70;;;;;;6091289;23;20037;-69
2021/06/25 08:02:52;;;;;;;4.97;1.58;;;14.40;70.80;;;;;;6092944;23;20066;-68
2021/06/25 08:05:19;;;;;;;8.18;1.90;;;14.40;70.80;;;;;;6092220;23;19999;-68
2021/06/25 08:07:45;;;;;;;2.72;1.55;;;14.40;70.80;;;;;;6092608;23;20006;-67
2021/06/25 08:10:12;;;;;;;2.78;1.30;;;14.40;70.90;;;;;;6090876;23;20014;-66
2021/06/25 08:12:39;;;;;;;6.80;1.63;;;14.40;71.00;;;;;;6092117;23;20054;-66
2021/06/25 08:15:06;;;;;;;7.80;2.05;;;14.40;71.10;;;;;;6092774;23;20015;-69
2021/06/25 08:17:33;;;;;;;6.20;1.60;;;14.40;71.20;;;;;;6091001;23;19998;-66
2021/06/25 08:19:59;;;;;;;6.75;2.00;;;14.40;71.40;;;;;;6092920;23;20010;-65
2021/06/25 08:22:26;;;;;;;5.43;2.03;;;14.40;71.60;;;;;;6091716;23;20053;-67
2021/06/25 08:24:53;;;;;;;4.18;2.00;;;14.40;71.80;;;;;;6093443;23;20012;-67
2021/06/25 08:27:20;;;;;;;4.60;2.55;;;14.40;71.90;;;;;;6091193;23;20372;-67
2021/06/25 08:29:47;;;;;;;8.98;1.60;;;14.40;72.10;;;;;;6092836;23;20007;-67
2021/06/25 08:32:13;;;;;;;3.85;1.90;;;14.40;72.20;;;;;;6091796;23;20461;-71
2021/06/25 08:34:40;;;;;;;2.53;1.80;;;14.40;72.40;;;;;;6092022;23;20002;-66
2021/06/25 08:37:07;;;;;;;4.40;1.83;;;14.40;72.60;;;;;;6092511;23;20011;-66
2021/06/25 08:39:34;;;;;;;9.45;2.00;;;14.40;72.70;;;;;;6091251;23;20029;-65
2021/06/25 08:42:05;;;;;;;1.85;1.38;;;14.40;72.90;;;;;;6092760;23;20030;-65
2021/06/25 08:44:49;;;;;;;4.97;1.50;;;14.40;73.10;;;;;;6091355;23;20087;-66
2021/06/25 08:47:17;;;;;;;3.40;1.42;;;14.40;73.10;;;;;;6091858;23;20064;-66
2021/06/25 08:49:48;;;;;;;3.58;1.52;;;14.40;73.30;;;;;;6091671;23;20507;-66
2021/06/25 08:52:14;;;;;;;4.35;2.05;;;14.40;73.40;;;;;;6091617;23;20009;-66
2021/06/25 08:54:41;;;;;;;6.68;1.17;;;14.40;73.60;;;;;;6092843;23;20014;-66
2021/06/25 08:57:09;;;;;;;6.20;2.10;;;14.40;73.80;;;;;;6092231;23;20049;-66
2021/06/25 08:59:36;;;;;;;4.45;1.30;;;14.40;74.00;;;;;;6094420;23;20328;-66
2021/06/25 09:02:03;;;;;;;4.85;2.30;;;14.40;74.10;;;;;;6092392;23;19999;-65
2021/06/25 09:04:38;;;;;;;3.92;1.17;;;14.40;74.20;;;;;;6094708;23;20066;-66
2021/06/25 09:07:09;;;;;;;5.28;3.03;;;14.40;74.40;;;;;;6093673;23;20388;-66
2021/06/25 09:09:47;;;;;;;4.40;1.17;;;14.40;74.50;;;;;;6093213;23;20093;-66
2021/06/25 09:12:15;;;;;;;4.78;1.15;;;14.40;74.60;;;;;;6093829;23;20026;-65
2021/06/25 09:14:57;;;;;;;5.10;1.30;;;14.40;74.70;;;;;;6093205;23;20054;-66
2021/06/25 09:17:23;;;;;;;3.95;0.95;;;14.40;74.80;;;;;;6093996;23;20002;-64
2021/06/25 09:19:50;;;;;;;3.65;0.80;;;14.50;75.00;;;;;;6093932;23;19999;-65
2021/06/25 09:22:16;;;;;;;3.03;1.27;;;14.40;75.10;;;;;;6093250;23;20057;-65
2021/06/25 09:24:44;;;;;;;4.55;2.53;;;14.50;75.30;;;;;;6094896;23;20028;-65
2021/06/25 09:27:10;;;;;;;3.45;1.15;;;14.50;75.60;;;;;;6092583;23;20066;-65
2021/06/25 09:29:40;;;;;;;3.35;1.35;;;14.50;75.80;;;;;;6092943;23;20374;-67
2021/06/25 09:32:11;;;;;;;4.45;1.00;;;14.50;76.50;;;;;;6092500;23;20009;-66
2021/06/25 09:34:49;;;;;;;3.47;1.15;;;14.50;76.10;;;;;;6093739;23;20010;-66
2021/06/25 09:37:18;;;;;;;2.40;1.75;;;14.60;76.30;;;;;;6094163;23;20006;-66
2021/06/25 09:40:01;;;;;;;1.35;1.20;;;14.60;76.30;;;;;;6093508;23;20002;-66
2021/06/25 09:42:28;;;;;;;3.47;1.52;;;14.60;76.40;;;;;;6094276;23;19998;-66
2021/06/25 09:45:04;;;;;;;2.47;1.23;;;14.60;76.50;;;;;;6092773;23;20014;-65
2021/06/25 09:47:38;;;;;;;4.47;1.42;;;14.60;76.60;;;;;;6094294;23;20003;-65
2021/06/25 09:50:16;;;;;;;3.20;1.53;;;14.60;76.70;;;;;;6093248;23;20086;-66
2021/06/25 09:52:53;;;;;;;2.58;0.85;;;14.70;76.80;;;;;;6093052;23;20065;-65
2021/06/25 09:55:31;;;;;;;4.70;1.70;;;14.70;76.90;;;;;;6094280;23;20053;-65
2021/06/25 09:58:21;;;;;;;7.03;1.50;;;14.60;77.00;;;;;;6092359;23;20006;-65
2021/06/25 10:03:51;;;;;;;10.40;1.35;;;14.60;77.40;;;;;;6093096;23;20034;-65
2021/06/25 10:06:20;;;;;;;5.50;1.90;;;14.70;77.60;;;;;;6092643;23;20474;-65
2021/06/25 10:08:46;;;;;;;3.90;1.83;;;14.70;77.80;;;;;;6093176;23;20022;-65
2021/06/25 10:11:15;;;;;;;2.85;1.65;;;14.70;77.90;;;;;;6092086;23;20034;-65
2021/06/25 10:13:43;;;;;;;9.20;2.13;;;14.70;78.00;;;;;;6093821;23;20525;-65
2021/06/25 10:16:10;;;;;;;6.32;2.30;;;14.70;78.10;;;;;;6093263;23;20013;-65
2021/06/25 10:18:41;;;;;;;6.80;2.92;;;14.70;78.90;;;;;;6092609;23;20026;-65
2021/06/25 10:21:11;;;;;;;6.45;2.17;;;14.70;78.40;;;;;;6093540;23;20010;-65
2021/06/25 10:23:40;;;;;;;6.28;2.40;;;14.70;78.50;;;;;;6092828;23;20002;-65
2021/06/25 10:26:11;;;;;;;5.15;2.03;;;14.70;78.60;;;;;;6093095;23;20014;-65
2021/06/25 10:28:40;;;;;;;7.13;2.40;;;14.70;78.70;;;;;;6092121;23;20018;-65
2021/06/25 10:31:09;;;;;;;7.05;2.38;;;14.70;79.00;;;;;;6093030;23;20002;-65
2021/06/25 10:33:36;;;;;;;5.80;2.28;;;14.70;79.30;;;;;;6093717;23;20102;-65
2021/06/25 10:36:06;;;;;;;5.65;2.10;;;14.70;79.50;;;;;;6092264;23;20002;-65
2021/06/25 10:38:34;;;;;;;7.60;4.60;;;14.80;79.80;;;;;;6093186;23;20011;-65
2021/06/25 10:41:03;;;;;;;6.28;2.45;;;14.70;80.00;;;;;;6092321;23;20005;-65
2021/06/25 10:43:40;;;;;;;6.75;2.40;;;14.80;80.40;;;;;;6093537;23;20003;-65
2021/06/25 10:46:29;;;;;;;8.77;3.47;;;14.80;80.80;;;;;;6087542;23;20557;-65
2021/06/25 10:49:36;;;;;;;5.38;2.95;;;14.80;81.20;;;;;;6086286;23;20042;-67
2021/06/25 10:52:42;;;;;;;6.57;2.55;;;14.90;81.80;;;;;;6090289;23;20368;-64
2021/06/25 10:55:51;;;;;;;6.78;2.17;;;15.00;82.20;;;;;;6089968;23;20308;-65
2021/06/25 10:59:03;;;;;;;5.97;2.25;;;15.00;82.60;;;;;;6091074;23;20077;-65
2021/06/25 11:02:09;;;;;;;6.38;2.08;;;15.20;83.20;;;;;;6092463;23;20298;-65
2021/06/25 11:05:16;;;;;;;6.70;2.40;;;15.30;83.60;;;;;;6093331;23;20069;-66
2021/06/25 11:08:14;;;;;;;4.88;2.20;;;15.40;84.10;;;;;;6092723;23;20010;-64
2021/06/25 11:11:20;;;;;;;5.13;2.20;;;15.50;84.60;;;;;;6093060;23;20011;-65
2021/06/25 11:14:44;;;;;;;9.50;2.22;;;15.60;85.00;;;;;;6092285;23;20091;-66
2021/06/25 11:17:49;;;;;;;4.40;1.58;;;15.60;85.30;;;;;;6094020;23;20014;-66
2021/06/25 11:20:28;;;;;;;5.40;1.20;;;15.60;85.40;;;;;;6092502;23;20081;-66
2021/06/25 11:23:40;;;;;;;5.05;1.60;;;15.70;85.70;;;;;;6093697;23;20438;-66
2021/06/25 11:26:16;;;;;;;7.28;2.50;;;15.70;86.00;;;;;;6093760;23;20018;-66
2021/06/25 11:29:22;;;;;;;1.85;1.10;;;15.70;86.20;;;;;;6092570;23;20015;-67
2021/06/25 11:32:28;;;;;;;3.25;1.58;;;15.80;86.40;;;;;;6093315;23;20007;-66
2021/06/25 11:35:37;;;;;;;5.00;1.60;;;15.80;86.70;;;;;;6093774;23;20081;-66
2021/06/25 11:38:41;;;;;;;4.28;1.80;;;15.80;86.70;;;;;;6081261;23;20308;-66
2021/06/25 11:41:46;;;;;;;9.30;2.40;;;15.80;86.90;;;;;;6092540;23;20034;-65
2021/06/25 11:44:52;;;;;;;6.82;2.17;;;15.80;87.00;;;;;;6094080;23;20034;-66
2021/06/25 11:48:07;;;;;;;4.85;1.55;;;15.80;87.20;;;;;;6093856;23;20013;-67
2021/06/25 11:51:18;;;;;;;5.20;1.67;;;15.90;87.60;;;;;;6092681;23;20390;-65
2021/06/25 11:54:24;;;;;;;9.68;2.00;;;15.90;87.70;;;;;;6093189;23;20025;-68
2021/06/25 11:57:39;;;;;;;11.15;2.72;;;15.90;87.90;;;;;;6093858;23;20007;-66
2021/06/25 12:00:32;;;;;;;14.38;3.75;;;15.90;88.10;;;;;;6093491;23;20050;-68
2021/06/25 12:03:38;;;;;;;12.10;2.97;;;16.00;88.40;;;;;;6092148;23;20343;-66
2021/06/25 12:06:44;;;;;;;9.40;3.38;;;16.00;88.40;;;;;;6093728;23;20547;-66
2021/06/25 12:10:05;;;;;;;24.48;5.55;;;16.00;88.50;;;;;;6093558;23;20405;-66
2021/06/25 12:13:11;;;;;;;14.40;4.47;;;16.00;88.50;;;;;;6092299;23;20007;-65
2021/06/25 12:16:24;;;;;;;13.48;4.15;;;16.10;88.50;;;;;;6092426;23;20041;-66
2021/06/25 12:19:30;;;;;;;14.45;3.80;;;16.10;89.10;;;;;;6093316;23;20339;-68
2021/06/25 12:22:36;;;;;;;12.70;3.50;;;16.20;88.20;;;;;;6093467;23;20007;-66
2021/06/25 12:25:28;;;;;;;19.70;5.28;;;16.20;88.00;;;;;;6092496;23;20003;-66
2021/06/25 12:28:34;;;;;;;15.30;3.88;;;16.30;87.90;;;;;;6093421;23;20443;-66
2021/06/25 12:31:40;;;;;;;14.65;3.47;;;16.30;87.70;;;;;;6093127;23;20006;-66
2021/06/25 12:34:29;;;;;;;15.50;3.88;;;16.40;87.50;;;;;;6091838;23;20033;-65
2021/06/25 12:37:39;;;;;;;11.75;3.92;;;16.40;87.10;;;;;;6092851;23;20007;-65
2021/06/25 12:40:37;;;;;;;23.13;5.53;;;16.40;86.70;;;;;;6093968;23;20074;-64
2021/06/25 12:43:49;;;;;;;23.95;5.00;;;16.40;86.70;;;;;;6093135;23;20005;-65
2021/06/25 12:46:55;;;;;;;16.27;3.67;;;16.30;86.90;;;;;;6091907;23;20465;-65
2021/06/25 12:50:01;;;;;;;27.23;4.78;;;16.40;87.20;;;;;;6093091;23;20554;-65
2021/06/25 12:53:07;;;;;;;12.65;2.88;;;16.30;87.40;;;;;;6093571;23;20002;-65
2021/06/25 12:56:16;;;;;;;15.80;5.55;;;16.20;87.50;;;;;;6092721;23;20073;-66
2021/06/25 12:59:02;;;;;;;20.75;5.18;;;16.20;87.60;;;;;;6093266;23;20034;-65
2021/06/25 13:02:17;;;;;;;18.80;4.60;;;16.20;87.60;;;;;;6093691;23;20007;-66
2021/06/25 13:05:23;;;;;;;16.15;5.50;;;16.20;87.60;;;;;;6093220;23;20018;-67
2021/06/25 13:08:35;;;;;;;14.52;4.70;;;16.10;87.50;;;;;;6092538;23;20098;-65
2021/06/25 13:11:57;;;;;;;15.95;5.65;;;16.10;87.40;;;;;;6093906;23;20018;-65
2021/06/25 13:15:18;;;;;;;19.33;4.30;;;16.10;87.30;;;;;;6093916;23;20009;-65
2021/06/25 13:18:24;;;;;;;17.35;5.43;;;16.10;87.00;;;;;;6115888;23;20105;-66
2021/06/25 13:21:33;;;;;;;20.92;4.88;;;16.00;86.80;;;;;;6092629;23;20003;-65
2021/06/25 13:24:26;;;;;;;16.92;4.18;;;16.00;86.60;;;;;;6079347;23;20402;-66
2021/06/25 13:27:32;;;;;;;18.52;6.30;;;16.00;86.30;;;;;;6093727;23;20007;-66
2021/06/25 13:30:40;;;;;;;25.92;5.18;;;16.00;86.00;;;;;;6092624;23;20383;-66
2021/06/25 13:33:49;;;;;;;21.63;5.72;;;16.10;85.80;;;;;;6093565;23;20006;-69
2021/06/25 13:36:55;;;;;;;24.98;5.28;;;16.00;85.40;;;;;;6093592;23;20041;-66
2021/06/25 13:40:01;;;;;;;25.73;4.93;;;16.10;85.20;;;;;;6092912;23;20059;-66
2021/06/25 13:43:07;;;;;;;18.95;5.28;;;16.00;84.90;;;;;;6091504;23;20064;-66
2021/06/25 13:46:12;;;;;;;31.73;7.15;;;16.10;84.70;;;;;;6079882;23;20077;-66
2021/06/25 13:49:23;;;;;;;17.02;5.05;;;16.10;84.50;;;;;;6095454;23;20082;-66
2021/06/25 13:52:44;;;;;;;27.65;6.90;;;16.00;84.20;;;;;;6094125;23;20006;-65
2021/06/25 13:55:11;;;;;;;20.85;5.93;;;16.10;84.10;;;;;;6094481;23;20007;-66
2021/06/25 13:58:29;;;;;;;26.27;7.53;;;16.10;83.90;;;;;;6095515;23;20002;-66
2021/06/25 14:01:35;;;;;;;21.50;6.43;;;16.10;83.90;;;;;;6117119;23;20006;-66